sensor_id;sensor_type;location;lat;lon;timestamp;P1;durP1;ratioP1;P2;durP2;ratioP2
50906;SDS011;36882;27.680;85.304;2023-09-18T00:00:30;17.45;;;9.73;;
50906;SDS011;36882;27.680;85.304;2023-09-18T00:03:01;16.48;;;9.07;;
50906;SDS011;36882;27.680;85.304;2023-09-18T00:05:32;12.20;;;8.68;;
50906;SDS011;36882;27.680;85.304;2023-09-18T00:08:03;14.25;;;8.82;;
50906;SDS011;36882;27.680;85.304;2023-09-18T00:10:34;21.88;;;8.63;;
50906;SDS011;36882;27.680;85.304;2023-09-18T00:13:04;11.00;;;8.45;;
50906;SDS011;36882;27.680;85.304;2023-09-18T00:15:35;19.92;;;8.63;;
50906;SDS011;36882;27.680;85.304;2023-09-18T00:18:07;11.75;;;7.88;;
50906;SDS011;36882;27.680;85.304;2023-09-18T00:20:40;14.77;;;8.63;;
50906;SDS011;36882;27.680;85.304;2023-09-18T00:23:12;18.10;;;8.30;;
50906;SDS011;36882;27.680;85.304;2023-09-18T00:25:42;22.90;;;8.38;;
50906;SDS011;36882;27.680;85.304;2023-09-18T00:28:13;15.45;;;9.05;;
50906;SDS011;36882;27.680;85.304;2023-09-18T00:30:47;16.35;;;9.50;;
50906;SDS011;36882;27.680;85.304;2023-09-18T00:33:19;18.38;;;8.90;;
50906;SDS011;36882;27.680;85.304;2023-09-18T00:35:50;12.75;;;8.32;;
50906;SDS011;36882;27.680;85.304;2023-09-18T00:38:21;15.82;;;9.13;;
50906;SDS011;36882;27.680;85.304;2023-09-18T00:40:51;15.40;;;8.20;;
50906;SDS011;36882;27.680;85.304;2023-09-18T00:43:22;23.00;;;10.73;;
50906;SDS011;36882;27.680;85.304;2023-09-18T00:45:53;17.17;;;8.80;;
50906;SDS011;36882;27.680;85.304;2023-09-18T00:48:23;20.83;;;7.03;;
50906;SDS011;36882;27.680;85.304;2023-09-18T00:50:54;15.07;;;8.80;;
50906;SDS011;36882;27.680;85.304;2023-09-18T00:53:25;9.20;;;7.40;;
50906;SDS011;36882;27.680;85.304;2023-09-18T00:55:58;16.75;;;7.80;;
50906;SDS011;36882;27.680;85.304;2023-09-18T00:58:30;14.23;;;9.13;;
50906;SDS011;36882;27.680;85.304;2023-09-18T01:01:03;16.08;;;9.77;;
50906;SDS011;36882;27.680;85.304;2023-09-18T01:03:34;18.98;;;9.13;;
50906;SDS011;36882;27.680;85.304;2023-09-18T01:06:04;18.77;;;9.93;;
50906;SDS011;36882;27.680;85.304;2023-09-18T01:08:35;15.27;;;9.30;;
50906;SDS011;36882;27.680;85.304;2023-09-18T01:14:13;16.23;;;10.90;;
50906;SDS011;36882;27.680;85.304;2023-09-18T01:16:57;24.60;;;11.70;;
50906;SDS011;36882;27.680;85.304;2023-09-18T01:19:39;19.52;;;9.63;;
50906;SDS011;36882;27.680;85.304;2023-09-18T01:22:15;15.30;;;10.13;;
50906;SDS011;36882;27.680;85.304;2023-09-18T01:24:47;28.95;;;10.32;;
50906;SDS011;36882;27.680;85.304;2023-09-18T01:27:17;15.90;;;11.05;;
50906;SDS011;36882;27.680;85.304;2023-09-18T01:29:48;15.73;;;11.02;;
50906;SDS011;36882;27.680;85.304;2023-09-18T01:32:19;26.42;;;12.40;;
50906;SDS011;36882;27.680;85.304;2023-09-18T01:34:55;31.65;;;13.60;;
50906;SDS011;36882;27.680;85.304;2023-09-18T01:37:30;23.48;;;13.68;;
50906;SDS011;36882;27.680;85.304;2023-09-18T01:40:04;15.27;;;10.73;;
50906;SDS011;36882;27.680;85.304;2023-09-18T01:42:36;17.95;;;11.90;;
50906;SDS011;36882;27.680;85.304;2023-09-18T01:45:07;23.42;;;12.82;;
50906;SDS011;36882;27.680;85.304;2023-09-18T01:47:37;20.75;;;13.02;;
50906;SDS011;36882;27.680;85.304;2023-09-18T01:50:08;15.20;;;12.77;;
50906;SDS011;36882;27.680;85.304;2023-09-18T01:52:39;26.13;;;13.25;;
50906;SDS011;36882;27.680;85.304;2023-09-18T01:55:10;25.58;;;14.20;;
50906;SDS011;36882;27.680;85.304;2023-09-18T01:57:40;21.00;;;14.45;;
50906;SDS011;36882;27.680;85.304;2023-09-18T02:00:11;19.48;;;13.23;;
50906;SDS011;36882;27.680;85.304;2023-09-18T02:02:44;24.25;;;14.45;;
50906;SDS011;36882;27.680;85.304;2023-09-18T02:05:34;23.23;;;13.75;;
50906;SDS011;36882;27.680;85.304;2023-09-18T02:08:05;28.83;;;15.65;;
50906;SDS011;36882;27.680;85.304;2023-09-18T02:10:36;22.48;;;16.25;;
50906;SDS011;36882;27.680;85.304;2023-09-18T02:13:06;22.88;;;15.90;;
50906;SDS011;36882;27.680;85.304;2023-09-18T02:15:37;26.88;;;15.70;;
50906;SDS011;36882;27.680;85.304;2023-09-18T02:18:08;28.65;;;17.02;;
50906;SDS011;36882;27.680;85.304;2023-09-18T02:20:41;29.52;;;16.40;;
50906;SDS011;36882;27.680;85.304;2023-09-18T02:23:16;33.17;;;15.25;;
50906;SDS011;36882;27.680;85.304;2023-09-18T02:25:54;23.42;;;15.75;;
50906;SDS011;36882;27.680;85.304;2023-09-18T02:28:26;24.40;;;15.60;;
50906;SDS011;36882;27.680;85.304;2023-09-18T02:30:56;23.92;;;16.92;;
50906;SDS011;36882;27.680;85.304;2023-09-18T02:33:27;20.17;;;16.55;;
50906;SDS011;36882;27.680;85.304;2023-09-18T02:35:57;28.92;;;17.60;;
50906;SDS011;36882;27.680;85.304;2023-09-18T02:38:28;24.27;;;18.17;;
50906;SDS011;36882;27.680;85.304;2023-09-18T02:40:59;29.05;;;21.08;;
50906;SDS011;36882;27.680;85.304;2023-09-18T02:43:30;32.47;;;20.58;;
50906;SDS011;36882;27.680;85.304;2023-09-18T02:46:00;34.25;;;20.27;;
50906;SDS011;36882;27.680;85.304;2023-09-18T02:48:31;32.15;;;20.85;;
50906;SDS011;36882;27.680;85.304;2023-09-18T02:51:02;38.05;;;24.05;;
50906;SDS011;36882;27.680;85.304;2023-09-18T02:53:32;32.80;;;20.35;;
50906;SDS011;36882;27.680;85.304;2023-09-18T02:56:03;23.83;;;19.42;;
50906;SDS011;36882;27.680;85.304;2023-09-18T02:58:34;24.20;;;17.20;;
50906;SDS011;36882;27.680;85.304;2023-09-18T03:01:06;32.63;;;19.88;;
50906;SDS011;36882;27.680;85.304;2023-09-18T03:03:37;27.70;;;20.38;;
50906;SDS011;36882;27.680;85.304;2023-09-18T03:06:10;27.13;;;17.50;;
50906;SDS011;36882;27.680;85.304;2023-09-18T03:08:41;30.17;;;18.40;;
50906;SDS011;36882;27.680;85.304;2023-09-18T03:11:13;34.47;;;19.02;;
50906;SDS011;36882;27.680;85.304;2023-09-18T03:13:45;25.65;;;16.88;;
50906;SDS011;36882;27.680;85.304;2023-09-18T03:16:16;30.52;;;17.10;;
50906;SDS011;36882;27.680;85.304;2023-09-18T03:18:47;28.35;;;20.38;;
50906;SDS011;36882;27.680;85.304;2023-09-18T03:21:21;31.83;;;18.55;;
50906;SDS011;36882;27.680;85.304;2023-09-18T03:23:51;32.72;;;21.00;;
50906;SDS011;36882;27.680;85.304;2023-09-18T03:26:22;29.70;;;19.45;;
50906;SDS011;36882;27.680;85.304;2023-09-18T03:28:52;31.58;;;19.58;;
50906;SDS011;36882;27.680;85.304;2023-09-18T03:31:23;32.03;;;20.50;;
50906;SDS011;36882;27.680;85.304;2023-09-18T03:33:53;36.05;;;18.42;;
50906;SDS011;36882;27.680;85.304;2023-09-18T03:36:24;29.92;;;21.02;;
50906;SDS011;36882;27.680;85.304;2023-09-18T03:38:54;28.20;;;19.88;;
50906;SDS011;36882;27.680;85.304;2023-09-18T03:41:25;32.10;;;21.08;;
50906;SDS011;36882;27.680;85.304;2023-09-18T03:43:56;31.20;;;18.35;;
50906;SDS011;36882;27.680;85.304;2023-09-18T03:46:27;26.58;;;18.38;;
50906;SDS011;36882;27.680;85.304;2023-09-18T03:48:58;36.60;;;19.33;;
50906;SDS011;36882;27.680;85.304;2023-09-18T03:51:29;24.23;;;17.02;;
50906;SDS011;36882;27.680;85.304;2023-09-18T03:54:00;29.13;;;17.85;;
50906;SDS011;36882;27.680;85.304;2023-09-18T03:56:30;24.83;;;17.33;;
50906;SDS011;36882;27.680;85.304;2023-09-18T03:59:02;28.25;;;19.25;;
50906;SDS011;36882;27.680;85.304;2023-09-18T04:01:33;22.88;;;18.13;;
50906;SDS011;36882;27.680;85.304;2023-09-18T04:04:05;32.00;;;17.95;;
50906;SDS011;36882;27.680;85.304;2023-09-18T04:06:36;30.02;;;18.35;;
50906;SDS011;36882;27.680;85.304;2023-09-18T04:09:10;18.13;;;15.52;;
50906;SDS011;36882;27.680;85.304;2023-09-18T04:11:40;23.60;;;16.38;;
50906;SDS011;36882;27.680;85.304;2023-09-18T04:14:11;33.38;;;17.13;;
50906;SDS011;36882;27.680;85.304;2023-09-18T04:16:44;30.15;;;17.20;;
50906;SDS011;36882;27.680;85.304;2023-09-18T04:19:18;23.55;;;15.35;;
50906;SDS011;36882;27.680;85.304;2023-09-18T04:21:48;27.85;;;16.27;;
50906;SDS011;36882;27.680;85.304;2023-09-18T04:24:19;28.75;;;16.65;;
50906;SDS011;36882;27.680;85.304;2023-09-18T04:26:50;27.23;;;16.70;;
50906;SDS011;36882;27.680;85.304;2023-09-18T04:29:21;28.38;;;16.92;;
50906;SDS011;36882;27.680;85.304;2023-09-18T04:31:51;29.60;;;17.20;;
50906;SDS011;36882;27.680;85.304;2023-09-18T04:34:23;26.25;;;15.75;;
50906;SDS011;36882;27.680;85.304;2023-09-18T04:36:54;23.63;;;14.88;;
50906;SDS011;36882;27.680;85.304;2023-09-18T04:39:24;27.40;;;16.67;;
50906;SDS011;36882;27.680;85.304;2023-09-18T04:41:55;26.98;;;14.98;;
50906;SDS011;36882;27.680;85.304;2023-09-18T04:44:26;29.20;;;15.27;;
50906;SDS011;36882;27.680;85.304;2023-09-18T04:46:57;19.00;;;10.88;;
50906;SDS011;36882;27.680;85.304;2023-09-18T04:49:27;20.05;;;11.75;;
50906;SDS011;36882;27.680;85.304;2023-09-18T04:51:58;13.82;;;9.30;;
50906;SDS011;36882;27.680;85.304;2023-09-18T04:54:29;16.02;;;10.23;;
50906;SDS011;36882;27.680;85.304;2023-09-18T04:56:59;15.80;;;9.98;;
50906;SDS011;36882;27.680;85.304;2023-09-18T04:59:30;15.90;;;10.63;;
50906;SDS011;36882;27.680;85.304;2023-09-18T05:02:00;19.17;;;10.20;;
50906;SDS011;36882;27.680;85.304;2023-09-18T05:04:31;18.15;;;9.82;;
50906;SDS011;36882;27.680;85.304;2023-09-18T05:07:02;18.80;;;11.65;;
50906;SDS011;36882;27.680;85.304;2023-09-18T05:09:33;20.25;;;10.50;;
50906;SDS011;36882;27.680;85.304;2023-09-18T05:12:04;16.63;;;10.35;;
50906;SDS011;36882;27.680;85.304;2023-09-18T05:14:37;13.45;;;8.32;;
50906;SDS011;36882;27.680;85.304;2023-09-18T05:17:10;20.25;;;7.75;;
50906;SDS011;36882;27.680;85.304;2023-09-18T05:19:48;13.95;;;6.95;;
50906;SDS011;36882;27.680;85.304;2023-09-18T05:22:21;14.02;;;7.30;;
50906;SDS011;36882;27.680;85.304;2023-09-18T05:24:52;14.45;;;8.00;;
50906;SDS011;36882;27.680;85.304;2023-09-18T05:27:25;11.20;;;7.35;;
50906;SDS011;36882;27.680;85.304;2023-09-18T05:29:55;12.93;;;6.65;;
50906;SDS011;36882;27.680;85.304;2023-09-18T05:32:26;11.40;;;7.53;;
50906;SDS011;36882;27.680;85.304;2023-09-18T05:34:58;13.15;;;7.05;;
50906;SDS011;36882;27.680;85.304;2023-09-18T05:37:34;15.20;;;7.65;;
50906;SDS011;36882;27.680;85.304;2023-09-18T05:40:06;13.23;;;7.18;;
50906;SDS011;36882;27.680;85.304;2023-09-18T05:42:41;11.00;;;7.40;;
50906;SDS011;36882;27.680;85.304;2023-09-18T05:45:13;10.75;;;7.65;;
50906;SDS011;36882;27.680;85.304;2023-09-18T05:47:44;13.65;;;7.85;;
50906;SDS011;36882;27.680;85.304;2023-09-18T05:50:16;13.80;;;7.50;;
50906;SDS011;36882;27.680;85.304;2023-09-18T05:52:47;13.50;;;7.45;;
50906;SDS011;36882;27.680;85.304;2023-09-18T05:55:18;16.02;;;8.55;;
50906;SDS011;36882;27.680;85.304;2023-09-18T05:57:49;11.95;;;7.93;;
50906;SDS011;36882;27.680;85.304;2023-09-18T06:00:24;17.00;;;8.23;;
50906;SDS011;36882;27.680;85.304;2023-09-18T06:03:08;15.23;;;8.02;;
50906;SDS011;36882;27.680;85.304;2023-09-18T06:05:44;10.73;;;7.88;;
50906;SDS011;36882;27.680;85.304;2023-09-18T06:08:15;12.45;;;8.60;;
50906;SDS011;36882;27.680;85.304;2023-09-18T06:10:48;12.15;;;8.35;;
50906;SDS011;36882;27.680;85.304;2023-09-18T06:13:18;14.60;;;8.52;;
50906;SDS011;36882;27.680;85.304;2023-09-18T06:15:49;11.07;;;7.20;;
50906;SDS011;36882;27.680;85.304;2023-09-18T06:18:21;16.08;;;8.05;;
50906;SDS011;36882;27.680;85.304;2023-09-18T06:20:53;14.07;;;6.82;;
50906;SDS011;36882;27.680;85.304;2023-09-18T06:23:23;13.18;;;9.20;;
50906;SDS011;36882;27.680;85.304;2023-09-18T06:25:53;12.95;;;7.43;;
50906;SDS011;36882;27.680;85.304;2023-09-18T06:28:25;11.65;;;6.72;;
50906;SDS011;36882;27.680;85.304;2023-09-18T06:30:55;9.40;;;6.13;;
50906;SDS011;36882;27.680;85.304;2023-09-18T06:33:26;9.88;;;6.22;;
50906;SDS011;36882;27.680;85.304;2023-09-18T06:35:56;12.85;;;6.85;;
50906;SDS011;36882;27.680;85.304;2023-09-18T06:38:27;9.23;;;4.88;;
50906;SDS011;36882;27.680;85.304;2023-09-18T06:40:58;12.20;;;5.30;;
50906;SDS011;36882;27.680;85.304;2023-09-18T06:43:29;6.88;;;4.97;;
50906;SDS011;36882;27.680;85.304;2023-09-18T06:45:59;8.40;;;5.97;;
50906;SDS011;36882;27.680;85.304;2023-09-18T06:48:30;7.22;;;4.63;;
50906;SDS011;36882;27.680;85.304;2023-09-18T06:51:01;5.47;;;3.97;;
50906;SDS011;36882;27.680;85.304;2023-09-18T06:53:31;7.13;;;4.60;;
50906;SDS011;36882;27.680;85.304;2023-09-18T06:56:02;7.07;;;4.55;;
50906;SDS011;36882;27.680;85.304;2023-09-18T06:58:33;9.32;;;4.60;;
50906;SDS011;36882;27.680;85.304;2023-09-18T07:01:04;24.60;;;5.70;;
50906;SDS011;36882;27.680;85.304;2023-09-18T07:03:35;7.55;;;5.28;;
50906;SDS011;36882;27.680;85.304;2023-09-18T07:06:09;7.72;;;4.03;;
50906;SDS011;36882;27.680;85.304;2023-09-18T07:08:39;8.98;;;4.35;;
50906;SDS011;36882;27.680;85.304;2023-09-18T07:11:20;7.90;;;5.35;;
50906;SDS011;36882;27.680;85.304;2023-09-18T07:13:54;13.75;;;5.07;;
50906;SDS011;36882;27.680;85.304;2023-09-18T07:16:29;6.32;;;4.78;;
50906;SDS011;36882;27.680;85.304;2023-09-18T07:19:00;7.53;;;4.35;;
50906;SDS011;36882;27.680;85.304;2023-09-18T07:21:53;7.57;;;4.55;;
50906;SDS011;36882;27.680;85.304;2023-09-18T07:24:34;27.90;;;7.00;;
50906;SDS011;36882;27.680;85.304;2023-09-18T07:27:05;20.17;;;6.22;;
50906;SDS011;36882;27.680;85.304;2023-09-18T07:29:44;9.75;;;4.95;;
50906;SDS011;36882;27.680;85.304;2023-09-18T07:32:15;7.55;;;4.78;;
50906;SDS011;36882;27.680;85.304;2023-09-18T07:35:04;14.65;;;5.43;;
50906;SDS011;36882;27.680;85.304;2023-09-18T07:37:36;10.18;;;6.10;;
50906;SDS011;36882;27.680;85.304;2023-09-18T07:40:07;7.60;;;5.72;;
50906;SDS011;36882;27.680;85.304;2023-09-18T07:42:39;7.80;;;5.65;;
50906;SDS011;36882;27.680;85.304;2023-09-18T07:45:12;8.82;;;6.05;;
50906;SDS011;36882;27.680;85.304;2023-09-18T07:47:43;12.82;;;5.55;;
50906;SDS011;36882;27.680;85.304;2023-09-18T07:50:14;10.50;;;5.32;;
50906;SDS011;36882;27.680;85.304;2023-09-18T07:52:46;9.88;;;5.30;;
50906;SDS011;36882;27.680;85.304;2023-09-18T07:55:16;8.52;;;5.65;;
50906;SDS011;36882;27.680;85.304;2023-09-18T07:57:50;5.78;;;4.90;;
50906;SDS011;36882;27.680;85.304;2023-09-18T08:00:20;9.30;;;6.00;;
50906;SDS011;36882;27.680;85.304;2023-09-18T08:02:52;12.70;;;6.68;;
50906;SDS011;36882;27.680;85.304;2023-09-18T08:05:29;11.23;;;7.35;;
50906;SDS011;36882;27.680;85.304;2023-09-18T08:08:00;9.32;;;6.32;;
50906;SDS011;36882;27.680;85.304;2023-09-18T08:10:36;9.75;;;8.57;;
50906;SDS011;36882;27.680;85.304;2023-09-18T08:13:06;13.40;;;8.60;;
50906;SDS011;36882;27.680;85.304;2023-09-18T08:15:37;15.50;;;7.20;;
50906;SDS011;36882;27.680;85.304;2023-09-18T08:18:09;11.45;;;7.85;;
50906;SDS011;36882;27.680;85.304;2023-09-18T08:20:41;18.02;;;8.45;;
50906;SDS011;36882;27.680;85.304;2023-09-18T08:23:12;16.50;;;8.15;;
50906;SDS011;36882;27.680;85.304;2023-09-18T08:25:42;11.52;;;7.03;;
50906;SDS011;36882;27.680;85.304;2023-09-18T08:28:14;17.48;;;8.95;;
50906;SDS011;36882;27.680;85.304;2023-09-18T08:30:44;12.35;;;8.95;;
50906;SDS011;36882;27.680;85.304;2023-09-18T08:33:16;29.08;;;10.13;;
50906;SDS011;36882;27.680;85.304;2023-09-18T08:35:46;16.77;;;8.77;;
50906;SDS011;36882;27.680;85.304;2023-09-18T08:38:18;13.40;;;8.15;;
50906;SDS011;36882;27.680;85.304;2023-09-18T08:40:49;10.60;;;8.07;;
50906;SDS011;36882;27.680;85.304;2023-09-18T08:43:24;12.38;;;6.75;;
50906;SDS011;36882;27.680;85.304;2023-09-18T08:45:57;13.98;;;7.40;;
50906;SDS011;36882;27.680;85.304;2023-09-18T08:48:30;15.05;;;7.22;;
50906;SDS011;36882;27.680;85.304;2023-09-18T08:51:06;8.23;;;6.45;;
50906;SDS011;36882;27.680;85.304;2023-09-18T08:53:37;12.27;;;7.20;;
50906;SDS011;36882;27.680;85.304;2023-09-18T08:56:08;14.75;;;7.10;;
50906;SDS011;36882;27.680;85.304;2023-09-18T08:58:39;14.63;;;7.90;;
50906;SDS011;36882;27.680;85.304;2023-09-18T09:01:11;10.25;;;6.28;;
50906;SDS011;36882;27.680;85.304;2023-09-18T09:03:45;9.52;;;6.18;;
50906;SDS011;36882;27.680;85.304;2023-09-18T09:06:16;10.45;;;6.32;;
50906;SDS011;36882;27.680;85.304;2023-09-18T09:08:46;12.40;;;6.22;;
50906;SDS011;36882;27.680;85.304;2023-09-18T09:11:17;11.38;;;6.47;;
50906;SDS011;36882;27.680;85.304;2023-09-18T09:13:54;15.93;;;7.22;;
50906;SDS011;36882;27.680;85.304;2023-09-18T09:16:46;14.77;;;7.03;;
50906;SDS011;36882;27.680;85.304;2023-09-18T09:19:30;15.18;;;6.90;;
50906;SDS011;36882;27.680;85.304;2023-09-18T09:22:05;12.98;;;6.85;;
50906;SDS011;36882;27.680;85.304;2023-09-18T09:24:39;16.23;;;8.68;;
50906;SDS011;36882;27.680;85.304;2023-09-18T09:27:10;11.70;;;7.15;;
50906;SDS011;36882;27.680;85.304;2023-09-18T09:29:43;12.52;;;7.50;;
50906;SDS011;36882;27.680;85.304;2023-09-18T09:32:29;10.73;;;7.13;;
50906;SDS011;36882;27.680;85.304;2023-09-18T09:35:03;12.10;;;5.75;;
50906;SDS011;36882;27.680;85.304;2023-09-18T09:37:36;13.30;;;6.15;;
50906;SDS011;36882;27.680;85.304;2023-09-18T09:40:07;14.27;;;6.60;;
50906;SDS011;36882;27.680;85.304;2023-09-18T09:42:43;17.42;;;7.53;;
50906;SDS011;36882;27.680;85.304;2023-09-18T09:45:15;9.27;;;5.82;;
50906;SDS011;36882;27.680;85.304;2023-09-18T09:47:46;10.52;;;6.45;;
50906;SDS011;36882;27.680;85.304;2023-09-18T09:50:16;11.15;;;6.13;;
50906;SDS011;36882;27.680;85.304;2023-09-18T09:52:48;10.02;;;6.72;;
50906;SDS011;36882;27.680;85.304;2023-09-18T09:55:30;9.10;;;6.40;;
50906;SDS011;36882;27.680;85.304;2023-09-18T09:58:06;15.25;;;7.88;;
50906;SDS011;36882;27.680;85.304;2023-09-18T10:03:19;14.60;;;6.78;;
50906;SDS011;36882;27.680;85.304;2023-09-18T10:05:51;13.07;;;7.70;;
50906;SDS011;36882;27.680;85.304;2023-09-18T10:08:25;12.95;;;7.22;;
50906;SDS011;36882;27.680;85.304;2023-09-18T10:11:01;12.50;;;7.18;;
50906;SDS011;36882;27.680;85.304;2023-09-18T10:16:22;10.60;;;6.70;;
50906;SDS011;36882;27.680;85.304;2023-09-18T10:19:02;8.80;;;6.40;;
50906;SDS011;36882;27.680;85.304;2023-09-18T10:22:06;10.32;;;7.10;;
50906;SDS011;36882;27.680;85.304;2023-09-18T10:24:46;15.27;;;7.43;;
50906;SDS011;36882;27.680;85.304;2023-09-18T10:27:18;9.32;;;7.43;;
50906;SDS011;36882;27.680;85.304;2023-09-18T10:29:50;13.80;;;6.35;;
50906;SDS011;36882;27.680;85.304;2023-09-18T10:32:23;11.85;;;6.65;;
50906;SDS011;36882;27.680;85.304;2023-09-18T10:34:57;12.98;;;7.05;;
50906;SDS011;36882;27.680;85.304;2023-09-18T10:37:29;15.55;;;7.20;;
50906;SDS011;36882;27.680;85.304;2023-09-18T10:40:01;10.18;;;6.38;;
50906;SDS011;36882;27.680;85.304;2023-09-18T10:42:40;13.75;;;6.45;;
50906;SDS011;36882;27.680;85.304;2023-09-18T10:45:11;9.55;;;5.90;;
50906;SDS011;36882;27.680;85.304;2023-09-18T10:47:44;15.05;;;6.32;;
50906;SDS011;36882;27.680;85.304;2023-09-18T10:50:25;17.38;;;7.60;;
50906;SDS011;36882;27.680;85.304;2023-09-18T10:52:59;14.60;;;7.13;;
50906;SDS011;36882;27.680;85.304;2023-09-18T10:55:30;12.70;;;6.93;;
50906;SDS011;36882;27.680;85.304;2023-09-18T10:58:02;11.02;;;7.30;;
50906;SDS011;36882;27.680;85.304;2023-09-18T11:00:33;14.75;;;7.82;;
50906;SDS011;36882;27.680;85.304;2023-09-18T11:03:15;13.00;;;8.27;;
50906;SDS011;36882;27.680;85.304;2023-09-18T11:05:47;13.27;;;9.60;;
50906;SDS011;36882;27.680;85.304;2023-09-18T11:11:12;12.15;;;7.78;;
50906;SDS011;36882;27.680;85.304;2023-09-18T11:13:51;12.05;;;7.32;;
50906;SDS011;36882;27.680;85.304;2023-09-18T11:21:31;12.38;;;7.68;;
50906;SDS011;36882;27.680;85.304;2023-09-18T11:26:35;16.42;;;7.97;;
50906;SDS011;36882;27.680;85.304;2023-09-18T11:29:08;13.98;;;9.02;;
50906;SDS011;36882;27.680;85.304;2023-09-18T11:34:26;21.20;;;10.20;;
50906;SDS011;36882;27.680;85.304;2023-09-18T11:37:40;24.55;;;13.32;;
50906;SDS011;36882;27.680;85.304;2023-09-18T11:45:44;16.17;;;9.98;;
50906;SDS011;36882;27.680;85.304;2023-09-18T11:48:19;18.10;;;9.50;;
50906;SDS011;36882;27.680;85.304;2023-09-18T11:50:53;14.35;;;8.60;;
50906;SDS011;36882;27.680;85.304;2023-09-18T11:53:28;35.03;;;10.07;;
50906;SDS011;36882;27.680;85.304;2023-09-18T11:56:03;31.52;;;10.55;;
50906;SDS011;36882;27.680;85.304;2023-09-18T11:58:46;21.45;;;10.13;;
50906;SDS011;36882;27.680;85.304;2023-09-18T12:01:18;12.38;;;8.52;;
50906;SDS011;36882;27.680;85.304;2023-09-18T12:04:01;19.15;;;10.55;;
50906;SDS011;36882;27.680;85.304;2023-09-18T12:06:39;14.93;;;10.38;;
50906;SDS011;36882;27.680;85.304;2023-09-18T12:09:10;19.30;;;9.68;;
50906;SDS011;36882;27.680;85.304;2023-09-18T12:11:46;16.85;;;10.40;;
50906;SDS011;36882;27.680;85.304;2023-09-18T12:14:18;15.27;;;10.80;;
50906;SDS011;36882;27.680;85.304;2023-09-18T12:16:52;18.08;;;10.90;;
50906;SDS011;36882;27.680;85.304;2023-09-18T12:19:22;21.65;;;10.80;;
50906;SDS011;36882;27.680;85.304;2023-09-18T12:21:54;24.65;;;11.80;;
50906;SDS011;36882;27.680;85.304;2023-09-18T12:24:25;26.77;;;11.68;;
50906;SDS011;36882;27.680;85.304;2023-09-18T12:26:56;20.42;;;11.02;;
50906;SDS011;36882;27.680;85.304;2023-09-18T12:29:27;26.15;;;11.05;;
50906;SDS011;36882;27.680;85.304;2023-09-18T12:32:01;28.95;;;13.18;;
50906;SDS011;36882;27.680;85.304;2023-09-18T12:34:34;22.92;;;11.57;;
50906;SDS011;36882;27.680;85.304;2023-09-18T12:37:05;24.10;;;11.60;;
50906;SDS011;36882;27.680;85.304;2023-09-18T12:39:40;20.48;;;12.10;;
50906;SDS011;36882;27.680;85.304;2023-09-18T12:42:10;38.00;;;16.50;;
50906;SDS011;36882;27.680;85.304;2023-09-18T12:44:41;19.40;;;11.70;;
50906;SDS011;36882;27.680;85.304;2023-09-18T12:47:11;26.50;;;14.05;;
50906;SDS011;36882;27.680;85.304;2023-09-18T12:49:42;22.60;;;13.52;;
50906;SDS011;36882;27.680;85.304;2023-09-18T12:52:12;31.38;;;16.38;;
50906;SDS011;36882;27.680;85.304;2023-09-18T12:54:50;31.92;;;13.07;;
50906;SDS011;36882;27.680;85.304;2023-09-18T12:57:25;34.75;;;13.77;;
50906;SDS011;36882;27.680;85.304;2023-09-18T12:59:55;27.92;;;15.23;;
50906;SDS011;36882;27.680;85.304;2023-09-18T13:02:26;24.05;;;14.35;;
50906;SDS011;36882;27.680;85.304;2023-09-18T13:04:57;30.77;;;14.02;;
50906;SDS011;36882;27.680;85.304;2023-09-18T13:07:27;24.90;;;14.13;;
50906;SDS011;36882;27.680;85.304;2023-09-18T13:10:10;22.05;;;12.52;;
50906;SDS011;36882;27.680;85.304;2023-09-18T13:12:43;22.13;;;12.43;;
50906;SDS011;36882;27.680;85.304;2023-09-18T13:15:31;20.77;;;12.98;;
50906;SDS011;36882;27.680;85.304;2023-09-18T13:18:09;25.13;;;12.43;;
50906;SDS011;36882;27.680;85.304;2023-09-18T13:20:43;18.77;;;11.93;;
50906;SDS011;36882;27.680;85.304;2023-09-18T13:23:14;20.17;;;12.25;;
50906;SDS011;36882;27.680;85.304;2023-09-18T13:25:47;23.83;;;11.75;;
50906;SDS011;36882;27.680;85.304;2023-09-18T13:28:18;18.27;;;11.48;;
50906;SDS011;36882;27.680;85.304;2023-09-18T13:30:49;24.95;;;13.10;;
50906;SDS011;36882;27.680;85.304;2023-09-18T13:33:20;20.02;;;11.27;;
50906;SDS011;36882;27.680;85.304;2023-09-18T13:35:52;21.70;;;11.27;;
50906;SDS011;36882;27.680;85.304;2023-09-18T13:38:24;19.77;;;11.90;;
50906;SDS011;36882;27.680;85.304;2023-09-18T13:40:58;18.35;;;12.60;;
50906;SDS011;36882;27.680;85.304;2023-09-18T13:43:28;24.23;;;12.60;;
50906;SDS011;36882;27.680;85.304;2023-09-18T13:46:04;20.67;;;12.20;;
50906;SDS011;36882;27.680;85.304;2023-09-18T13:48:34;20.13;;;12.75;;
50906;SDS011;36882;27.680;85.304;2023-09-18T13:51:07;25.67;;;12.52;;
50906;SDS011;36882;27.680;85.304;2023-09-18T13:53:38;21.70;;;15.13;;
50906;SDS011;36882;27.680;85.304;2023-09-18T13:56:10;15.73;;;12.52;;
50906;SDS011;36882;27.680;85.304;2023-09-18T13:58:40;21.23;;;14.68;;
50906;SDS011;36882;27.680;85.304;2023-09-18T14:01:10;24.88;;;17.98;;
50906;SDS011;36882;27.680;85.304;2023-09-18T14:03:44;21.25;;;13.52;;
50906;SDS011;36882;27.680;85.304;2023-09-18T14:06:14;27.92;;;14.52;;
50906;SDS011;36882;27.680;85.304;2023-09-18T14:08:45;16.40;;;9.43;;
50906;SDS011;36882;27.680;85.304;2023-09-18T14:11:16;17.17;;;9.63;;
50906;SDS011;36882;27.680;85.304;2023-09-18T14:13:47;20.65;;;10.93;;
50906;SDS011;36882;27.680;85.304;2023-09-18T14:16:17;18.10;;;11.90;;
50906;SDS011;36882;27.680;85.304;2023-09-18T14:18:47;17.17;;;12.27;;
50906;SDS011;36882;27.680;85.304;2023-09-18T14:21:18;23.80;;;13.73;;
50906;SDS011;36882;27.680;85.304;2023-09-18T14:23:49;29.52;;;14.77;;
50906;SDS011;36882;27.680;85.304;2023-09-18T14:26:19;21.85;;;12.68;;
50906;SDS011;36882;27.680;85.304;2023-09-18T14:28:49;24.38;;;13.50;;
50906;SDS011;36882;27.680;85.304;2023-09-18T14:31:20;16.17;;;12.05;;
50906;SDS011;36882;27.680;85.304;2023-09-18T14:33:50;17.20;;;11.70;;
50906;SDS011;36882;27.680;85.304;2023-09-18T14:36:21;17.98;;;11.55;;
50906;SDS011;36882;27.680;85.304;2023-09-18T14:38:51;20.38;;;10.50;;
50906;SDS011;36882;27.680;85.304;2023-09-18T14:41:22;16.60;;;11.02;;
50906;SDS011;36882;27.680;85.304;2023-09-18T14:43:54;19.00;;;9.90;;
50906;SDS011;36882;27.680;85.304;2023-09-18T14:46:26;23.48;;;11.95;;
50906;SDS011;36882;27.680;85.304;2023-09-18T14:49:01;20.95;;;11.35;;
50906;SDS011;36882;27.680;85.304;2023-09-18T14:51:32;25.67;;;11.63;;
50906;SDS011;36882;27.680;85.304;2023-09-18T14:54:03;17.67;;;10.52;;
50906;SDS011;36882;27.680;85.304;2023-09-18T14:56:35;21.85;;;11.82;;
50906;SDS011;36882;27.680;85.304;2023-09-18T14:59:06;11.95;;;9.82;;
50906;SDS011;36882;27.680;85.304;2023-09-18T15:01:37;14.88;;;10.93;;
50906;SDS011;36882;27.680;85.304;2023-09-18T15:04:07;19.50;;;11.30;;
50906;SDS011;36882;27.680;85.304;2023-09-18T15:06:38;19.20;;;11.52;;
50906;SDS011;36882;27.680;85.304;2023-09-18T15:09:09;15.85;;;11.85;;
50906;SDS011;36882;27.680;85.304;2023-09-18T15:11:39;21.27;;;12.35;;
50906;SDS011;36882;27.680;85.304;2023-09-18T15:14:09;23.60;;;12.75;;